sensor_id;sensor_type;location;lat;lon;timestamp;P1;durP1;ratioP1;P2;durP2;ratioP2
11572;SDS011;5842;52.426;4.886;2022-09-24T00:00:43;52.60;;;31.67;;
11572;SDS011;5842;52.426;4.886;2022-09-24T00:03:16;53.97;;;31.90;;
11572;SDS011;5842;52.426;4.886;2022-09-24T00:05:44;54.03;;;31.73;;
11572;SDS011;5842;52.426;4.886;2022-09-24T00:08:12;55.03;;;32.47;;
11572;SDS011;5842;52.426;4.886;2022-09-24T00:10:41;51.30;;;31.00;;
11572;SDS011;5842;52.426;4.886;2022-09-24T00:13:12;54.03;;;31.17;;
11572;SDS011;5842;52.426;4.886;2022-09-24T00:15:43;52.77;;;30.90;;
11572;SDS011;5842;52.426;4.886;2022-09-24T00:18:11;54.30;;;32.23;;
11572;SDS011;5842;52.426;4.886;2022-09-24T00:20:39;55.10;;;33.13;;
11572;SDS011;5842;52.426;4.886;2022-09-24T00:23:07;51.60;;;30.23;;
11572;SDS011;5842;52.426;4.886;2022-09-24T00:25:39;53.40;;;31.20;;
11572;SDS011;5842;52.426;4.886;2022-09-24T00:28:25;53.70;;;30.57;;
11572;SDS011;5842;52.426;4.886;2022-09-24T00:30:52;51.23;;;30.13;;
11572;SDS011;5842;52.426;4.886;2022-09-24T00:33:20;44.63;;;27.80;;
11572;SDS011;5842;52.426;4.886;2022-09-24T00:35:47;48.07;;;28.37;;
11572;SDS011;5842;52.426;4.886;2022-09-24T00:38:15;48.60;;;27.93;;
11572;SDS011;5842;52.426;4.886;2022-09-24T00:40:43;46.40;;;27.43;;
11572;SDS011;5842;52.426;4.886;2022-09-24T00:46:02;37.70;;;23.70;;
11572;SDS011;5842;52.426;4.886;2022-09-24T00:48:36;41.07;;;25.33;;
11572;SDS011;5842;52.426;4.886;2022-09-24T00:51:05;44.30;;;27.47;;
11572;SDS011;5842;52.426;4.886;2022-09-24T00:53:35;38.67;;;24.80;;
11572;SDS011;5842;52.426;4.886;2022-09-24T00:56:02;35.63;;;22.60;;
11572;SDS011;5842;52.426;4.886;2022-09-24T00:58:33;42.57;;;25.27;;
11572;SDS011;5842;52.426;4.886;2022-09-24T01:01:02;34.13;;;22.60;;
11572;SDS011;5842;52.426;4.886;2022-09-24T01:03:31;37.27;;;23.73;;
11572;SDS011;5842;52.426;4.886;2022-09-24T01:06:05;38.80;;;24.50;;
11572;SDS011;5842;52.426;4.886;2022-09-24T01:08:32;36.40;;;23.13;;
11572;SDS011;5842;52.426;4.886;2022-09-24T01:11:03;29.60;;;20.20;;
11572;SDS011;5842;52.426;4.886;2022-09-24T01:13:51;32.37;;;21.50;;
11572;SDS011;5842;52.426;4.886;2022-09-24T01:16:36;39.07;;;24.77;;
11572;SDS011;5842;52.426;4.886;2022-09-24T01:19:16;34.33;;;22.67;;
11572;SDS011;5842;52.426;4.886;2022-09-24T01:21:59;44.43;;;27.40;;
11572;SDS011;5842;52.426;4.886;2022-09-24T01:24:34;49.43;;;29.00;;
11572;SDS011;5842;52.426;4.886;2022-09-24T01:27:15;40.57;;;26.17;;
11572;SDS011;5842;52.426;4.886;2022-09-24T01:29:51;51.17;;;31.30;;
11572;SDS011;5842;52.426;4.886;2022-09-24T01:32:27;44.40;;;27.37;;
11572;SDS011;5842;52.426;4.886;2022-09-24T01:35:05;39.80;;;24.90;;
11572;SDS011;5842;52.426;4.886;2022-09-24T01:37:38;42.23;;;26.13;;
11572;SDS011;5842;52.426;4.886;2022-09-24T01:40:09;42.37;;;25.97;;
11572;SDS011;5842;52.426;4.886;2022-09-24T01:42:38;44.13;;;27.13;;
11572;SDS011;5842;52.426;4.886;2022-09-24T01:45:10;43.73;;;26.90;;
11572;SDS011;5842;52.426;4.886;2022-09-24T01:47:39;46.50;;;27.90;;
11572;SDS011;5842;52.426;4.886;2022-09-24T01:50:08;43.17;;;27.53;;
11572;SDS011;5842;52.426;4.886;2022-09-24T01:52:39;44.23;;;28.03;;
11572;SDS011;5842;52.426;4.886;2022-09-24T01:55:10;40.03;;;25.97;;
11572;SDS011;5842;52.426;4.886;2022-09-24T01:57:41;43.90;;;27.77;;
11572;SDS011;5842;52.426;4.886;2022-09-24T02:00:15;43.63;;;27.33;;
11572;SDS011;5842;52.426;4.886;2022-09-24T02:02:45;42.70;;;26.97;;
11572;SDS011;5842;52.426;4.886;2022-09-24T02:05:17;48.13;;;30.80;;
11572;SDS011;5842;52.426;4.886;2022-09-24T02:07:49;47.60;;;29.40;;
11572;SDS011;5842;52.426;4.886;2022-09-24T02:10:23;42.13;;;26.33;;
11572;SDS011;5842;52.426;4.886;2022-09-24T02:12:51;39.63;;;24.80;;
11572;SDS011;5842;52.426;4.886;2022-09-24T02:15:25;36.23;;;23.47;;
11572;SDS011;5842;52.426;4.886;2022-09-24T02:17:57;39.80;;;26.53;;
11572;SDS011;5842;52.426;4.886;2022-09-24T02:20:34;43.60;;;26.33;;
11572;SDS011;5842;52.426;4.886;2022-09-24T02:23:03;39.50;;;26.40;;
11572;SDS011;5842;52.426;4.886;2022-09-24T02:25:37;39.70;;;26.17;;
11572;SDS011;5842;52.426;4.886;2022-09-24T02:28:07;39.13;;;26.10;;
11572;SDS011;5842;52.426;4.886;2022-09-24T02:30:38;46.53;;;28.07;;
11572;SDS011;5842;52.426;4.886;2022-09-24T02:33:09;44.80;;;27.27;;
11572;SDS011;5842;52.426;4.886;2022-09-24T02:35:52;41.30;;;25.80;;
11572;SDS011;5842;52.426;4.886;2022-09-24T02:38:19;45.63;;;28.73;;
11572;SDS011;5842;52.426;4.886;2022-09-24T02:40:46;49.50;;;31.03;;
11572;SDS011;5842;52.426;4.886;2022-09-24T02:43:15;44.77;;;26.97;;
11572;SDS011;5842;52.426;4.886;2022-09-24T02:45:43;46.63;;;29.67;;
11572;SDS011;5842;52.426;4.886;2022-09-24T02:48:10;47.50;;;29.57;;
11572;SDS011;5842;52.426;4.886;2022-09-24T02:50:38;49.30;;;31.47;;
11572;SDS011;5842;52.426;4.886;2022-09-24T02:53:05;46.70;;;29.13;;
11572;SDS011;5842;52.426;4.886;2022-09-24T02:55:32;42.30;;;27.20;;
11572;SDS011;5842;52.426;4.886;2022-09-24T02:57:59;41.80;;;26.83;;
11572;SDS011;5842;52.426;4.886;2022-09-24T03:00:26;39.37;;;25.93;;
11572;SDS011;5842;52.426;4.886;2022-09-24T03:02:55;47.97;;;29.33;;
11572;SDS011;5842;52.426;4.886;2022-09-24T03:05:22;50.67;;;30.63;;
11572;SDS011;5842;52.426;4.886;2022-09-24T03:07:49;47.20;;;29.23;;
11572;SDS011;5842;52.426;4.886;2022-09-24T03:10:16;48.07;;;29.00;;
11572;SDS011;5842;52.426;4.886;2022-09-24T03:12:43;45.13;;;28.70;;
11572;SDS011;5842;52.426;4.886;2022-09-24T03:15:10;44.97;;;29.33;;
11572;SDS011;5842;52.426;4.886;2022-09-24T03:17:37;52.90;;;32.83;;
11572;SDS011;5842;52.426;4.886;2022-09-24T03:20:07;48.40;;;29.77;;
11572;SDS011;5842;52.426;4.886;2022-09-24T03:22:34;49.00;;;29.20;;
11572;SDS011;5842;52.426;4.886;2022-09-24T03:25:01;48.57;;;30.33;;
11572;SDS011;5842;52.426;4.886;2022-09-24T03:27:28;52.53;;;32.57;;
11572;SDS011;5842;52.426;4.886;2022-09-24T03:29:55;51.37;;;30.63;;
11572;SDS011;5842;52.426;4.886;2022-09-24T03:32:40;47.23;;;29.97;;
11572;SDS011;5842;52.426;4.886;2022-09-24T03:35:08;47.30;;;29.27;;
11572;SDS011;5842;52.426;4.886;2022-09-24T03:37:36;46.10;;;29.00;;
11572;SDS011;5842;52.426;4.886;2022-09-24T03:40:04;43.67;;;28.33;;
11572;SDS011;5842;52.426;4.886;2022-09-24T03:42:32;42.60;;;26.77;;
11572;SDS011;5842;52.426;4.886;2022-09-24T03:44:59;44.87;;;27.63;;
11572;SDS011;5842;52.426;4.886;2022-09-24T03:47:26;55.97;;;33.30;;
11572;SDS011;5842;52.426;4.886;2022-09-24T03:49:55;46.73;;;29.40;;
11572;SDS011;5842;52.426;4.886;2022-09-24T03:52:24;40.97;;;25.77;;
11572;SDS011;5842;52.426;4.886;2022-09-24T03:54:52;39.73;;;24.07;;
11572;SDS011;5842;52.426;4.886;2022-09-24T03:57:19;33.80;;;21.90;;
11572;SDS011;5842;52.426;4.886;2022-09-24T03:59:47;34.80;;;22.27;;
11572;SDS011;5842;52.426;4.886;2022-09-24T04:02:16;32.53;;;19.60;;
11572;SDS011;5842;52.426;4.886;2022-09-24T04:04:44;26.53;;;17.33;;
11572;SDS011;5842;52.426;4.886;2022-09-24T04:07:11;28.73;;;17.77;;
11572;SDS011;5842;52.426;4.886;2022-09-24T04:09:40;23.53;;;14.20;;
11572;SDS011;5842;52.426;4.886;2022-09-24T04:12:07;17.10;;;10.40;;
11572;SDS011;5842;52.426;4.886;2022-09-24T04:14:34;16.73;;;8.33;;
11572;SDS011;5842;52.426;4.886;2022-09-24T04:17:01;17.60;;;7.67;;
11572;SDS011;5842;52.426;4.886;2022-09-24T04:19:28;16.30;;;8.43;;
11572;SDS011;5842;52.426;4.886;2022-09-24T04:21:56;14.47;;;8.97;;
11572;SDS011;5842;52.426;4.886;2022-09-24T04:24:23;16.83;;;10.53;;
11572;SDS011;5842;52.426;4.886;2022-09-24T04:26:52;18.23;;;10.43;;
11572;SDS011;5842;52.426;4.886;2022-09-24T04:29:19;14.90;;;8.70;;
11572;SDS011;5842;52.426;4.886;2022-09-24T04:31:46;14.67;;;7.83;;
11572;SDS011;5842;52.426;4.886;2022-09-24T04:34:13;11.87;;;5.90;;
11572;SDS011;5842;52.426;4.886;2022-09-24T04:36:41;9.50;;;5.10;;
11572;SDS011;5842;52.426;4.886;2022-09-24T04:39:09;11.30;;;5.70;;
11572;SDS011;5842;52.426;4.886;2022-09-24T04:41:36;8.57;;;4.93;;
11572;SDS011;5842;52.426;4.886;2022-09-24T04:44:05;9.97;;;5.27;;
11572;SDS011;5842;52.426;4.886;2022-09-24T04:46:32;9.27;;;4.97;;
11572;SDS011;5842;52.426;4.886;2022-09-24T04:48:59;7.97;;;5.20;;
11572;SDS011;5842;52.426;4.886;2022-09-24T04:51:27;10.30;;;5.80;;
11572;SDS011;5842;52.426;4.886;2022-09-24T04:53:59;10.67;;;5.67;;
11572;SDS011;5842;52.426;4.886;2022-09-24T04:56:27;12.80;;;6.60;;
11572;SDS011;5842;52.426;4.886;2022-09-24T04:58:55;9.77;;;5.40;;
11572;SDS011;5842;52.426;4.886;2022-09-24T05:01:24;15.37;;;5.47;;
11572;SDS011;5842;52.426;4.886;2022-09-24T05:03:51;12.57;;;5.07;;
11572;SDS011;5842;52.426;4.886;2022-09-24T05:06:18;11.90;;;5.30;;
11572;SDS011;5842;52.426;4.886;2022-09-24T05:08:45;11.80;;;4.67;;
11572;SDS011;5842;52.426;4.886;2022-09-24T05:11:12;10.90;;;4.30;;
11572;SDS011;5842;52.426;4.886;2022-09-24T05:13:39;11.83;;;4.87;;
11572;SDS011;5842;52.426;4.886;2022-09-24T05:16:06;13.80;;;4.50;;
11572;SDS011;5842;52.426;4.886;2022-09-24T05:18:35;11.50;;;4.90;;
11572;SDS011;5842;52.426;4.886;2022-09-24T05:21:02;11.07;;;4.73;;
11572;SDS011;5842;52.426;4.886;2022-09-24T05:23:29;11.97;;;4.70;;
11572;SDS011;5842;52.426;4.886;2022-09-24T05:25:56;9.87;;;4.53;;
11572;SDS011;5842;52.426;4.886;2022-09-24T05:28:41;11.37;;;4.17;;
11572;SDS011;5842;52.426;4.886;2022-09-24T05:31:08;10.63;;;3.87;;
11572;SDS011;5842;52.426;4.886;2022-09-24T05:33:37;15.23;;;3.93;;
11572;SDS011;5842;52.426;4.886;2022-09-24T05:36:04;13.57;;;4.10;;
11572;SDS011;5842;52.426;4.886;2022-09-24T05:38:31;15.53;;;4.03;;
11572;SDS011;5842;52.426;4.886;2022-09-24T05:41:01;9.87;;;3.33;;
11572;SDS011;5842;52.426;4.886;2022-09-24T05:43:28;13.53;;;4.17;;
11572;SDS011;5842;52.426;4.886;2022-09-24T05:45:56;9.77;;;3.50;;
11572;SDS011;5842;52.426;4.886;2022-09-24T05:48:23;8.90;;;3.20;;
11572;SDS011;5842;52.426;4.886;2022-09-24T05:50:52;11.80;;;3.30;;
11572;SDS011;5842;52.426;4.886;2022-09-24T05:53:20;9.60;;;3.07;;
11572;SDS011;5842;52.426;4.886;2022-09-24T05:55:48;13.57;;;3.50;;
11572;SDS011;5842;52.426;4.886;2022-09-24T05:58:15;11.43;;;3.20;;
11572;SDS011;5842;52.426;4.886;2022-09-24T06:00:42;12.93;;;3.13;;
11572;SDS011;5842;52.426;4.886;2022-09-24T06:03:11;16.00;;;3.23;;
11572;SDS011;5842;52.426;4.886;2022-09-24T06:05:42;11.40;;;3.40;;
11572;SDS011;5842;52.426;4.886;2022-09-24T06:08:12;11.43;;;3.20;;
11572;SDS011;5842;52.426;4.886;2022-09-24T06:10:40;10.53;;;3.20;;
11572;SDS011;5842;52.426;4.886;2022-09-24T06:13:08;9.63;;;3.10;;
11572;SDS011;5842;52.426;4.886;2022-09-24T06:15:35;13.20;;;3.30;;
11572;SDS011;5842;52.426;4.886;2022-09-24T06:18:03;12.03;;;2.87;;
11572;SDS011;5842;52.426;4.886;2022-09-24T06:20:30;9.13;;;2.77;;
11572;SDS011;5842;52.426;4.886;2022-09-24T06:22:58;10.13;;;2.43;;
11572;SDS011;5842;52.426;4.886;2022-09-24T06:25:28;11.37;;;2.83;;
11572;SDS011;5842;52.426;4.886;2022-09-24T06:27:56;10.70;;;2.87;;
11572;SDS011;5842;52.426;4.886;2022-09-24T06:30:26;12.73;;;2.90;;
11572;SDS011;5842;52.426;4.886;2022-09-24T06:32:54;12.43;;;2.50;;
11572;SDS011;5842;52.426;4.886;2022-09-24T06:35:26;8.10;;;2.90;;
11572;SDS011;5842;52.426;4.886;2022-09-24T06:37:53;11.63;;;2.87;;
11572;SDS011;5842;52.426;4.886;2022-09-24T06:40:20;11.57;;;2.60;;
11572;SDS011;5842;52.426;4.886;2022-09-24T06:42:51;9.30;;;2.80;;
11572;SDS011;5842;52.426;4.886;2022-09-24T06:45:18;7.40;;;2.50;;
11572;SDS011;5842;52.426;4.886;2022-09-24T06:47:50;10.33;;;2.70;;
11572;SDS011;5842;52.426;4.886;2022-09-24T06:50:18;14.33;;;2.73;;
11572;SDS011;5842;52.426;4.886;2022-09-24T06:52:48;8.63;;;3.10;;
11572;SDS011;5842;52.426;4.886;2022-09-24T06:55:15;9.70;;;2.80;;
11572;SDS011;5842;52.426;4.886;2022-09-24T06:57:43;9.20;;;2.70;;
11572;SDS011;5842;52.426;4.886;2022-09-24T07:00:13;11.90;;;2.80;;
11572;SDS011;5842;52.426;4.886;2022-09-24T07:02:41;11.60;;;2.80;;
11572;SDS011;5842;52.426;4.886;2022-09-24T07:05:08;7.60;;;2.40;;
11572;SDS011;5842;52.426;4.886;2022-09-24T07:07:36;7.70;;;2.50;;
11572;SDS011;5842;52.426;4.886;2022-09-24T07:10:04;5.97;;;2.30;;
11572;SDS011;5842;52.426;4.886;2022-09-24T07:12:33;10.23;;;2.77;;
11572;SDS011;5842;52.426;4.886;2022-09-24T07:15:01;9.77;;;2.33;;
11572;SDS011;5842;52.426;4.886;2022-09-24T07:17:31;10.80;;;2.87;;
11572;SDS011;5842;52.426;4.886;2022-09-24T07:19:58;8.53;;;2.40;;
11572;SDS011;5842;52.426;4.886;2022-09-24T07:38:48;8.40;;;2.50;;
11572;SDS011;5842;52.426;4.886;2022-09-24T07:41:15;8.67;;;2.60;;
11572;SDS011;5842;52.426;4.886;2022-09-24T07:43:44;8.53;;;2.03;;
11572;SDS011;5842;52.426;4.886;2022-09-24T07:46:11;7.17;;;2.10;;
11572;SDS011;5842;52.426;4.886;2022-09-24T07:48:39;7.57;;;2.10;;
11572;SDS011;5842;52.426;4.886;2022-09-24T07:51:08;9.30;;;2.23;;
11572;SDS011;5842;52.426;4.886;2022-09-24T07:53:35;9.43;;;2.10;;
11572;SDS011;5842;52.426;4.886;2022-09-24T07:56:05;5.37;;;2.10;;
11572;SDS011;5842;52.426;4.886;2022-09-24T07:58:32;6.10;;;2.17;;
11572;SDS011;5842;52.426;4.886;2022-09-24T08:00:59;5.30;;;2.10;;
11572;SDS011;5842;52.426;4.886;2022-09-24T08:03:27;7.90;;;2.50;;
11572;SDS011;5842;52.426;4.886;2022-09-24T08:05:54;8.00;;;2.33;;
11572;SDS011;5842;52.426;4.886;2022-09-24T08:08:23;7.47;;;2.30;;
11572;SDS011;5842;52.426;4.886;2022-09-24T08:10:51;6.77;;;1.90;;
11572;SDS011;5842;52.426;4.886;2022-09-24T08:13:19;7.37;;;2.43;;
11572;SDS011;5842;52.426;4.886;2022-09-24T08:15:47;7.57;;;2.23;;
11572;SDS011;5842;52.426;4.886;2022-09-24T08:18:21;7.80;;;2.20;;
11572;SDS011;5842;52.426;4.886;2022-09-24T08:20:48;9.53;;;2.20;;
11572;SDS011;5842;52.426;4.886;2022-09-24T08:23:15;7.90;;;2.20;;
11572;SDS011;5842;52.426;4.886;2022-09-24T08:25:43;8.13;;;2.13;;
11572;SDS011;5842;52.426;4.886;2022-09-24T08:28:10;7.93;;;2.10;;
11572;SDS011;5842;52.426;4.886;2022-09-24T08:30:42;5.73;;;1.70;;
11572;SDS011;5842;52.426;4.886;2022-09-24T08:33:09;6.23;;;2.00;;
11572;SDS011;5842;52.426;4.886;2022-09-24T08:35:37;4.53;;;1.87;;
11572;SDS011;5842;52.426;4.886;2022-09-24T08:38:04;6.93;;;2.20;;
11572;SDS011;5842;52.426;4.886;2022-09-24T08:40:35;7.00;;;2.00;;
11572;SDS011;5842;52.426;4.886;2022-09-24T08:43:06;7.97;;;2.20;;
11572;SDS011;5842;52.426;4.886;2022-09-24T08:45:45;8.23;;;2.13;;
11572;SDS011;5842;52.426;4.886;2022-09-24T08:48:33;3.67;;;1.70;;
11572;SDS011;5842;52.426;4.886;2022-09-24T08:51:07;7.13;;;1.80;;
11572;SDS011;5842;52.426;4.886;2022-09-24T08:53:44;6.40;;;2.07;;
11572;SDS011;5842;52.426;4.886;2022-09-24T08:56:16;4.27;;;1.80;;
11572;SDS011;5842;52.426;4.886;2022-09-24T08:58:47;13.10;;;2.23;;
11572;SDS011;5842;52.426;4.886;2022-09-24T09:01:22;4.97;;;2.00;;
11572;SDS011;5842;52.426;4.886;2022-09-24T09:03:59;9.20;;;1.80;;
11572;SDS011;5842;52.426;4.886;2022-09-24T09:06:45;7.27;;;1.80;;
11572;SDS011;5842;52.426;4.886;2022-09-24T09:09:22;5.67;;;1.90;;
11572;SDS011;5842;52.426;4.886;2022-09-24T09:11:55;4.97;;;1.87;;
11572;SDS011;5842;52.426;4.886;2022-09-24T09:14:29;7.07;;;2.00;;
11572;SDS011;5842;52.426;4.886;2022-09-24T09:17:08;10.23;;;1.70;;
11572;SDS011;5842;52.426;4.886;2022-09-24T09:19:46;6.00;;;2.00;;
11572;SDS011;5842;52.426;4.886;2022-09-24T09:22:27;5.47;;;1.60;;
11572;SDS011;5842;52.426;4.886;2022-09-24T09:24:59;9.13;;;2.20;;
11572;SDS011;5842;52.426;4.886;2022-09-24T09:27:36;7.83;;;1.77;;
11572;SDS011;5842;52.426;4.886;2022-09-24T09:30:03;6.53;;;1.80;;
11572;SDS011;5842;52.426;4.886;2022-09-24T09:32:37;8.67;;;1.90;;
11572;SDS011;5842;52.426;4.886;2022-09-24T09:35:16;6.13;;;1.77;;
11572;SDS011;5842;52.426;4.886;2022-09-24T09:37:51;5.87;;;1.70;;
11572;SDS011;5842;52.426;4.886;2022-09-24T09:40:27;3.93;;;1.63;;
11572;SDS011;5842;52.426;4.886;2022-09-24T09:42:59;3.93;;;1.53;;
11572;SDS011;5842;52.426;4.886;2022-09-24T09:45:29;2.20;;;1.40;;
11572;SDS011;5842;52.426;4.886;2022-09-24T09:48:02;5.63;;;1.90;;
11572;SDS011;5842;52.426;4.886;2022-09-24T09:50:32;5.53;;;1.90;;
11572;SDS011;5842;52.426;4.886;2022-09-24T09:53:04;7.43;;;1.80;;
11572;SDS011;5842;52.426;4.886;2022-09-24T09:55:44;5.00;;;1.90;;
11572;SDS011;5842;52.426;4.886;2022-09-24T09:58:18;5.73;;;1.80;;
11572;SDS011;5842;52.426;4.886;2022-09-24T10:00:48;7.13;;;1.80;;
11572;SDS011;5842;52.426;4.886;2022-09-24T10:03:21;6.30;;;1.77;;
11572;SDS011;5842;52.426;4.886;2022-09-24T10:05:52;8.60;;;1.80;;
11572;SDS011;5842;52.426;4.886;2022-09-24T10:08:21;2.53;;;1.60;;
11572;SDS011;5842;52.426;4.886;2022-09-24T10:10:52;9.13;;;1.73;;
11572;SDS011;5842;52.426;4.886;2022-09-24T10:13:23;6.70;;;1.63;;
11572;SDS011;5842;52.426;4.886;2022-09-24T10:15:52;3.80;;;1.80;;
11572;SDS011;5842;52.426;4.886;2022-09-24T10:18:26;7.37;;;1.93;;
11572;SDS011;5842;52.426;4.886;2022-09-24T10:20:56;5.77;;;1.67;;
11572;SDS011;5842;52.426;4.886;2022-09-24T10:23:31;5.73;;;1.70;;
11572;SDS011;5842;52.426;4.886;2022-09-24T10:26:01;6.07;;;1.70;;
11572;SDS011;5842;52.426;4.886;2022-09-24T10:28:29;6.37;;;1.70;;
11572;SDS011;5842;52.426;4.886;2022-09-24T10:31:16;5.87;;;1.60;;
11572;SDS011;5842;52.426;4.886;2022-09-24T10:33:47;4.80;;;1.80;;
11572;SDS011;5842;52.426;4.886;2022-09-24T10:36:18;4.47;;;1.63;;
11572;SDS011;5842;52.426;4.886;2022-09-24T10:38:47;5.33;;;1.60;;
11572;SDS011;5842;52.426;4.886;2022-09-24T10:41:18;6.43;;;1.80;;
11572;SDS011;5842;52.426;4.886;2022-09-24T10:43:51;6.47;;;1.67;;
11572;SDS011;5842;52.426;4.886;2022-09-24T10:46:25;8.60;;;2.00;;
11572;SDS011;5842;52.426;4.886;2022-09-24T10:49:13;6.07;;;1.73;;
11572;SDS011;5842;52.426;4.886;2022-09-24T10:51:49;5.97;;;1.73;;
11572;SDS011;5842;52.426;4.886;2022-09-24T10:54:29;5.47;;;1.80;;
11572;SDS011;5842;52.426;4.886;2022-09-24T10:57:15;5.83;;;2.00;;
11572;SDS011;5842;52.426;4.886;2022-09-24T10:59:53;3.83;;;1.50;;
11572;SDS011;5842;52.426;4.886;2022-09-24T11:02:33;6.33;;;1.43;;
11572;SDS011;5842;52.426;4.886;2022-09-24T11:05:35;5.27;;;1.43;;
11572;SDS011;5842;52.426;4.886;2022-09-24T11:08:08;6.67;;;1.90;;
11572;SDS011;5842;52.426;4.886;2022-09-24T11:13:38;5.83;;;1.60;;
11572;SDS011;5842;52.426;4.886;2022-09-24T11:16:16;10.10;;;1.90;;
11572;SDS011;5842;52.426;4.886;2022-09-24T11:19:21;9.63;;;2.20;;
11572;SDS011;5842;52.426;4.886;2022-09-24T11:22:05;7.03;;;1.80;;
11572;SDS011;5842;52.426;4.886;2022-09-24T11:24:43;4.53;;;1.70;;
11572;SDS011;5842;52.426;4.886;2022-09-24T11:27:41;7.33;;;1.83;;
11572;SDS011;5842;52.426;4.886;2022-09-24T11:30:17;7.37;;;2.17;;
11572;SDS011;5842;52.426;4.886;2022-09-24T11:32:58;5.43;;;1.70;;
11572;SDS011;5842;52.426;4.886;2022-09-24T11:35:44;6.63;;;1.60;;
11572;SDS011;5842;52.426;4.886;2022-09-24T11:38:23;6.03;;;1.67;;
11572;SDS011;5842;52.426;4.886;2022-09-24T11:41:04;8.47;;;2.10;;
11572;SDS011;5842;52.426;4.886;2022-09-24T11:43:46;5.80;;;1.80;;
11572;SDS011;5842;52.426;4.886;2022-09-24T11:46:42;4.43;;;1.50;;
11572;SDS011;5842;52.426;4.886;2022-09-24T11:49:28;5.27;;;1.50;;
11572;SDS011;5842;52.426;4.886;2022-09-24T11:52:09;4.10;;;1.53;;
11572;SDS011;5842;52.426;4.886;2022-09-24T11:54:42;4.67;;;1.50;;
11572;SDS011;5842;52.426;4.886;2022-09-24T11:57:19;4.10;;;1.60;;
11572;SDS011;5842;52.426;4.886;2022-09-24T11:59:52;6.10;;;1.83;;
11572;SDS011;5842;52.426;4.886;2022-09-24T12:02:24;5.17;;;1.37;;
11572;SDS011;5842;52.426;4.886;2022-09-24T12:04:57;3.30;;;1.47;;
11572;SDS011;5842;52.426;4.886;2022-09-24T12:07:32;5.27;;;1.80;;
11572;SDS011;5842;52.426;4.886;2022-09-24T12:10:13;7.43;;;1.57;;
11572;SDS011;5842;52.426;4.886;2022-09-24T12:12:50;5.37;;;1.43;;
11572;SDS011;5842;52.426;4.886;2022-09-24T12:15:20;8.53;;;1.70;;
11572;SDS011;5842;52.426;4.886;2022-09-24T12:17:54;6.63;;;1.60;;
11572;SDS011;5842;52.426;4.886;2022-09-24T12:20:28;5.57;;;1.80;;
11572;SDS011;5842;52.426;4.886;2022-09-24T12:22:57;8.43;;;1.57;;
11572;SDS011;5842;52.426;4.886;2022-09-24T12:25:33;8.13;;;1.63;;
11572;SDS011;5842;52.426;4.886;2022-09-24T12:28:13;6.87;;;1.70;;
11572;SDS011;5842;52.426;4.886;2022-09-24T12:31:09;5.20;;;1.33;;
11572;SDS011;5842;52.426;4.886;2022-09-24T12:33:59;4.93;;;1.53;;
11572;SDS011;5842;52.426;4.886;2022-09-24T12:36:38;3.63;;;1.23;;
11572;SDS011;5842;52.426;4.886;2022-09-24T12:39:19;8.57;;;1.70;;
11572;SDS011;5842;52.426;4.886;2022-09-24T12:41:54;6.93;;;1.60;;
11572;SDS011;5842;52.426;4.886;2022-09-24T12:44:27;5.67;;;1.80;;
11572;SDS011;5842;52.426;4.886;2022-09-24T12:47:10;6.07;;;1.40;;
11572;SDS011;5842;52.426;4.886;2022-09-24T12:49:42;6.10;;;1.40;;
11572;SDS011;5842;52.426;4.886;2022-09-24T12:52:17;6.13;;;1.57;;
11572;SDS011;5842;52.426;4.886;2022-09-24T12:54:52;4.07;;;1.30;;
11572;SDS011;5842;52.426;4.886;2022-09-24T12:57:25;4.93;;;1.40;;
11572;SDS011;5842;52.426;4.886;2022-09-24T12:59:56;3.27;;;1.37;;
11572;SDS011;5842;52.426;4.886;2022-09-24T13:02:25;3.77;;;1.30;;
11572;SDS011;5842;52.426;4.886;2022-09-24T13:05:13;3.97;;;1.40;;
11572;SDS011;5842;52.426;4.886;2022-09-24T13:07:53;4.50;;;1.40;;
11572;SDS011;5842;52.426;4.886;2022-09-24T13:10:23;5.10;;;1.30;;
11572;SDS011;5842;52.426;4.886;2022-09-24T13:12:55;3.90;;;1.50;;
11572;SDS011;5842;52.426;4.886;2022-09-24T13:15:25;5.73;;;1.40;;
11572;SDS011;5842;52.426;4.886;2022-09-24T13:18:05;3.83;;;1.20;;
11572;SDS011;5842;52.426;4.886;2022-09-24T13:20:54;5.17;;;1.20;;
11572;SDS011;5842;52.426;4.886;2022-09-24T13:23:29;8.03;;;1.57;;
11572;SDS011;5842;52.426;4.886;2022-09-24T13:26:00;3.73;;;1.40;;
11572;SDS011;5842;52.426;4.886;2022-09-24T13:28:31;3.73;;;1.40;;
11572;SDS011;5842;52.426;4.886;2022-09-24T13:31:07;5.53;;;1.40;;
11572;SDS011;5842;52.426;4.886;2022-09-24T13:33:41;4.77;;;1.30;;
11572;SDS011;5842;52.426;4.886;2022-09-24T13:36:15;3.83;;;1.20;;
11572;SDS011;5842;52.426;4.886;2022-09-24T13:38:47;5.60;;;1.67;;
11572;SDS011;5842;52.426;4.886;2022-09-24T13:41:22;4.27;;;1.30;;
11572;SDS011;5842;52.426;4.886;2022-09-24T13:43:58;4.77;;;1.47;;
11572;SDS011;5842;52.426;4.886;2022-09-24T13:46:29;2.30;;;1.10;;
11572;SDS011;5842;52.426;4.886;2022-09-24T13:49:00;6.90;;;1.30;;
11572;SDS011;5842;52.426;4.886;2022-09-24T13:51:35;4.40;;;1.37;;
11572;SDS011;5842;52.426;4.886;2022-09-24T13:54:05;3.67;;;1.40;;
11572;SDS011;5842;52.426;4.886;2022-09-24T13:56:38;3.97;;;1.20;;
11572;SDS011;5842;52.426;4.886;2022-09-24T13:59:10;4.13;;;1.40;;
11572;SDS011;5842;52.426;4.886;2022-09-24T14:01:38;5.07;;;1.27;;
11572;SDS011;5842;52.426;4.886;2022-09-24T14:04:13;4.43;;;1.37;;
11572;SDS011;5842;52.426;4.886;2022-09-24T14:06:43;6.73;;;1.53;;
11572;SDS011;5842;52.426;4.886;2022-09-24T14:09:15;6.67;;;1.60;;
11572;SDS011;5842;52.426;4.886;2022-09-24T14:11:51;4.93;;;1.60;;
11572;SDS011;5842;52.426;4.886;2022-09-24T14:14:22;4.27;;;1.40;;
11572;SDS011;5842;52.426;4.886;2022-09-24T14:16:52;4.63;;;1.70;;
11572;SDS011;5842;52.426;4.886;2022-09-24T14:19:20;4.40;;;1.70;;
11572;SDS011;5842;52.426;4.886;2022-09-24T14:21:48;9.07;;;1.80;;
11572;SDS011;5842;52.426;4.886;2022-09-24T14:24:20;4.30;;;1.50;;
11572;SDS011;5842;52.426;4.886;2022-09-24T14:26:51;4.53;;;1.30;;
11572;SDS011;5842;52.426;4.886;2022-09-24T14:29:24;4.83;;;1.50;;
11572;SDS011;5842;52.426;4.886;2022-09-24T14:31:54;5.00;;;1.80;;
11572;SDS011;5842;52.426;4.886;2022-09-24T14:34:24;5.80;;;1.50;;
11572;SDS011;5842;52.426;4.886;2022-09-24T14:36:57;3.23;;;1.40;;
11572;SDS011;5842;52.426;4.886;2022-09-24T14:39:35;4.43;;;1.40;;
11572;SDS011;5842;52.426;4.886;2022-09-24T14:42:07;4.53;;;1.20;;
11572;SDS011;5842;52.426;4.886;2022-09-24T14:44:39;5.77;;;1.30;;
11572;SDS011;5842;52.426;4.886;2022-09-24T14:47:21;6.40;;;1.50;;
11572;SDS011;5842;52.426;4.886;2022-09-24T14:49:51;4.20;;;1.43;;
11572;SDS011;5842;52.426;4.886;2022-09-24T14:52:24;3.17;;;1.30;;
11572;SDS011;5842;52.426;4.886;2022-09-24T14:54:59;3.27;;;1.40;;
11572;SDS011;5842;52.426;4.886;2022-09-24T14:57:34;3.57;;;1.43;;
11572;SDS011;5842;52.426;4.886;2022-09-24T15:00:04;5.13;;;1.47;;
11572;SDS011;5842;52.426;4.886;2022-09-24T15:02:46;4.17;;;1.20;;
11572;SDS011;5842;52.426;4.886;2022-09-24T15:05:21;4.60;;;1.30;;
11572;SDS011;5842;52.426;4.886;2022-09-24T15:07:49;3.70;;;1.37;;
11572;SDS011;5842;52.426;4.886;2022-09-24T15:10:18;3.60;;;1.37;;
11572;SDS011;5842;52.426;4.886;2022-09-24T15:12:50;2.30;;;1.00;;
11572;SDS011;5842;52.426;4.886;2022-09-24T15:15:26;3.53;;;1.07;;
11572;SDS011;5842;52.426;4.886;2022-09-24T15:17:56;3.23;;;1.30;;
11572;SDS011;5842;52.426;4.886;2022-09-24T15:20:23;1.67;;;0.83;;
11572;SDS011;5842;52.426;4.886;2022-09-24T15:22:50;4.77;;;1.43;;
11572;SDS011;5842;52.426;4.886;2022-09-24T15:25:18;3.20;;;1.20;;
11572;SDS011;5842;52.426;4.886;2022-09-24T15:27:45;4.07;;;1.23;;
11572;SDS011;5842;52.426;4.886;2022-09-24T15:30:17;5.80;;;1.40;;
11572;SDS011;5842;52.426;4.886;2022-09-24T15:32:47;5.03;;;1.50;;
11572;SDS011;5842;52.426;4.886;2022-09-24T15:35:15;3.50;;;1.33;;
11572;SDS011;5842;52.426;4.886;2022-09-24T15:37:42;7.07;;;1.97;;
11572;SDS011;5842;52.426;4.886;2022-09-24T15:40:17;5.30;;;1.63;;
11572;SDS011;5842;52.426;4.886;2022-09-24T15:42:47;5.33;;;1.50;;